createdAt,value
2022-07-29T00:00:39.383Z,8.15
2022-07-29T00:03:07.092Z,5.75
2022-07-29T00:05:34.977Z,7.07
2022-07-29T00:08:02.781Z,6.88
2022-07-29T00:10:30.342Z,12.10
2022-07-29T00:12:58.170Z,6.78
2022-07-29T00:15:25.812Z,6.93
2022-07-29T00:17:53.344Z,6.85
2022-07-29T00:20:21.489Z,12.32
2022-07-29T00:22:48.942Z,11.52
2022-07-29T00:25:16.436Z,6.93
2022-07-29T00:27:44.338Z,8.38
2022-07-29T00:30:12.247Z,8.38
2022-07-29T00:32:40.113Z,8.32
2022-07-29T00:35:27.150Z,9.07
2022-07-29T00:37:55.542Z,7.90
2022-07-29T00:40:23.803Z,9.85
2022-07-29T00:42:52.875Z,7.07
2022-07-29T00:47:49.351Z,8.68
2022-07-29T00:50:17.036Z,11.55
2022-07-29T00:52:45.226Z,7.80
2022-07-29T00:55:16.833Z,7.45
2022-07-29T00:57:46.158Z,8.85
2022-07-29T01:00:18.901Z,9.15
2022-07-29T01:02:51.294Z,11.52
2022-07-29T01:05:22.056Z,7.63
2022-07-29T01:07:54.862Z,9.85
2022-07-29T01:10:24.902Z,9.65
2022-07-29T01:12:55.811Z,15.55
2022-07-29T01:15:24.214Z,8.18
2022-07-29T01:18:18.200Z,9.97
2022-07-29T01:21:45.784Z,12.52
2022-07-29T01:24:34.497Z,16.13
2022-07-29T01:27:43.038Z,15.07
2022-07-29T01:30:13.833Z,15.65
2022-07-29T01:32:48.682Z,11.80
2022-07-29T01:35:37.491Z,11.55
2022-07-29T01:38:18.642Z,14.63
2022-07-29T01:40:54.842Z,12.10
2022-07-29T01:44:03.901Z,12.10
2022-07-29T01:49:18.193Z,7.95
2022-07-29T01:51:52.817Z,9.90
2022-07-29T01:54:49.993Z,8.57
2022-07-29T01:57:22.035Z,10.00
2022-07-29T01:59:51.485Z,9.98
2022-07-29T02:02:20.734Z,11.38
2022-07-29T02:04:50.730Z,15.98
2022-07-29T02:07:22.943Z,11.15
2022-07-29T02:09:53.893Z,8.35
2022-07-29T02:12:23.058Z,9.73
2022-07-29T02:17:27.365Z,6.65
2022-07-29T02:20:02.823Z,9.35
2022-07-29T02:22:34.701Z,8.48
2022-07-29T02:25:03.715Z,11.40
2022-07-29T02:30:04.083Z,9.43
2022-07-29T02:32:36.456Z,9.32
2022-07-29T02:35:05.536Z,9.52
2022-07-29T02:37:34.781Z,7.03
2022-07-29T02:40:02.880Z,6.28
2022-07-29T02:42:32.206Z,6.40
2022-07-29T02:44:59.949Z,6.00
2022-07-29T02:47:43.951Z,6.85
2022-07-29T02:50:41.889Z,9.70
2022-07-29T02:53:26.266Z,5.70
2022-07-29T02:56:00.658Z,8.85
2022-07-29T02:58:39.992Z,4.28
2022-07-29T03:01:21.853Z,4.93
2022-07-29T03:03:52.845Z,3.85
2022-07-29T03:06:30.890Z,4.18
2022-07-29T03:09:13.032Z,4.05
2022-07-29T03:11:50.380Z,4.20
2022-07-29T03:14:20.962Z,6.32
2022-07-29T03:16:52.021Z,4.68
2022-07-29T03:19:21.412Z,4.47
2022-07-29T03:21:49.242Z,3.53
2022-07-29T03:24:37.444Z,5.78
2022-07-29T03:27:06.548Z,4.70
2022-07-29T03:29:34.890Z,4.60
2022-07-29T03:32:08.193Z,4.95
2022-07-29T03:34:38.601Z,4.68
2022-07-29T03:37:07.481Z,5.30
2022-07-29T03:42:09.833Z,5.20
2022-07-29T03:44:39.915Z,5.15
2022-07-29T03:47:09.793Z,9.85
2022-07-29T03:49:40.040Z,9.05
2022-07-29T03:52:08.573Z,6.97
2022-07-29T03:54:36.473Z,4.93
2022-07-29T03:57:04.667Z,5.18
2022-07-29T03:59:34.863Z,5.95
2022-07-29T04:02:05.306Z,4.50
2022-07-29T04:04:37.244Z,6.90
2022-07-29T04:07:06.306Z,5.07
2022-07-29T04:09:33.927Z,7.63
2022-07-29T04:12:04.100Z,6.93
2022-07-29T04:14:34.597Z,5.97
2022-07-29T04:17:04.422Z,5.38
2022-07-29T04:19:32.870Z,5.72
2022-07-29T04:22:01.498Z,4.75
2022-07-29T04:24:29.037Z,7.85
2022-07-29T04:26:56.705Z,9.23
2022-07-29T04:29:24.404Z,5.55
2022-07-29T04:31:51.973Z,6.32
2022-07-29T04:34:20.199Z,4.13
2022-07-29T04:36:48.313Z,4.47
2022-07-29T04:39:20.682Z,5.82
2022-07-29T04:41:52.531Z,12.27
2022-07-29T04:44:28.746Z,7.35
2022-07-29T04:46:58.351Z,6.07
2022-07-29T04:49:26.663Z,6.65
2022-07-29T04:51:54.519Z,5.10
2022-07-29T04:54:22.547Z,8.30
2022-07-29T04:56:50.033Z,4.97
2022-07-29T04:59:17.553Z,9.30
2022-07-29T05:01:45.312Z,5.65
2022-07-29T05:04:13.198Z,5.72
2022-07-29T05:06:40.911Z,6.40
2022-07-29T05:09:08.726Z,4.85
2022-07-29T05:11:36.237Z,6.10
2022-07-29T05:14:03.759Z,4.68
2022-07-29T05:16:31.508Z,4.32
2022-07-29T05:18:58.991Z,5.40
2022-07-29T05:21:26.485Z,5.35
2022-07-29T05:23:54.192Z,6.68
2022-07-29T05:26:21.673Z,5.43
2022-07-29T05:28:49.237Z,4.57
2022-07-29T05:31:17.479Z,5.93
2022-07-29T05:33:45.096Z,4.13
2022-07-29T05:36:12.804Z,3.75
2022-07-29T05:38:40.555Z,3.63
2022-07-29T05:41:07.973Z,3.50
2022-07-29T05:43:35.433Z,3.78
2022-07-29T05:46:03.459Z,3.83
2022-07-29T05:48:31.013Z,3.80
2022-07-29T05:50:58.488Z,3.80
2022-07-29T05:53:26.157Z,3.90
2022-07-29T05:55:53.835Z,4.80
2022-07-29T05:58:21.456Z,4.55
2022-07-29T06:00:49.398Z,4.50
2022-07-29T06:03:16.997Z,3.22
2022-07-29T06:05:44.435Z,4.05
2022-07-29T06:08:12.170Z,4.95
2022-07-29T06:10:39.687Z,5.85
2022-07-29T06:13:07.238Z,4.38
2022-07-29T06:15:35.078Z,7.63
2022-07-29T06:18:03.109Z,3.83
2022-07-29T06:20:32.666Z,4.78
2022-07-29T06:23:01.449Z,4.15
2022-07-29T06:25:33.354Z,5.07
2022-07-29T06:28:00.844Z,3.90
2022-07-29T06:30:29.865Z,3.45
2022-07-29T06:32:58.710Z,3.90
2022-07-29T06:35:38.313Z,4.72
2022-07-29T06:38:31.415Z,4.00
2022-07-29T06:41:03.168Z,9.70
2022-07-29T06:43:51.773Z,9.60
2022-07-29T06:46:22.279Z,3.88
2022-07-29T06:48:51.698Z,4.40
2022-07-29T06:51:22.359Z,4.35
2022-07-29T06:54:00.195Z,3.22
2022-07-29T06:56:39.932Z,9.65
2022-07-29T06:59:10.005Z,4.05
2022-07-29T07:01:43.061Z,3.80
2022-07-29T07:04:11.944Z,4.10
2022-07-29T07:06:40.677Z,6.13
2022-07-29T07:09:08.421Z,6.60
2022-07-29T07:11:36.471Z,5.00
2022-07-29T07:14:04.469Z,3.72
2022-07-29T07:16:33.158Z,4.13
2022-07-29T07:19:01.752Z,4.13
2022-07-29T07:21:30.660Z,6.53
2022-07-29T07:24:00.164Z,3.78
2022-07-29T07:26:28.723Z,4.00
2022-07-29T07:28:56.371Z,7.32
2022-07-29T07:31:24.072Z,3.50
2022-07-29T07:33:53.111Z,6.63
2022-07-29T07:36:20.896Z,4.78
2022-07-29T07:38:48.358Z,5.13
2022-07-29T07:41:16.417Z,3.90
2022-07-29T07:43:44.005Z,9.43
2022-07-29T07:46:11.526Z,4.53
2022-07-29T07:48:39.414Z,14.13
2022-07-29T07:51:08.280Z,3.50
2022-07-29T07:53:36.168Z,4.22
2022-07-29T07:56:11.060Z,4.60
2022-07-29T07:58:39.685Z,4.18
2022-07-29T08:01:07.853Z,3.90
2022-07-29T08:03:36.119Z,5.30
2022-07-29T08:06:05.158Z,3.63
2022-07-29T08:08:33.091Z,3.88
2022-07-29T08:11:08.331Z,3.60
2022-07-29T08:13:38.753Z,5.30
2022-07-29T08:16:14.199Z,3.88
2022-07-29T08:18:44.235Z,3.95
2022-07-29T08:21:14.924Z,4.22
2022-07-29T08:23:59.917Z,4.25
2022-07-29T08:26:28.665Z,4.30
2022-07-29T08:28:56.536Z,4.97
2022-07-29T08:31:24.513Z,4.45
2022-07-29T08:33:52.118Z,4.55
2022-07-29T08:36:21.953Z,4.22
2022-07-29T08:38:50.607Z,3.90
2022-07-29T08:41:20.417Z,3.92
2022-07-29T08:43:50.056Z,6.85
2022-07-29T08:46:18.528Z,5.18
2022-07-29T08:48:46.716Z,4.75
2022-07-29T08:51:18.245Z,4.50
2022-07-29T08:53:51.304Z,4.00
2022-07-29T08:56:20.627Z,9.20
2022-07-29T08:58:51.774Z,5.15
2022-07-29T09:01:36.225Z,4.60
2022-07-29T09:04:13.306Z,4.32
2022-07-29T09:06:46.428Z,4.65
2022-07-29T09:09:16.119Z,5.95
2022-07-29T09:11:44.069Z,4.40
2022-07-29T09:14:14.448Z,5.05
2022-07-29T09:16:54.376Z,4.68
2022-07-29T09:19:38.278Z,8.85
2022-07-29T09:22:13.151Z,5.25
2022-07-29T09:24:48.577Z,5.80
2022-07-29T09:27:24.586Z,5.78
2022-07-29T09:30:07.042Z,5.38
2022-07-29T09:32:54.634Z,8.40
2022-07-29T09:35:26.172Z,5.05
2022-07-29T09:37:54.490Z,7.00
2022-07-29T09:40:26.109Z,6.05
2022-07-29T09:42:57.873Z,5.85
2022-07-29T09:45:34.631Z,4.65
2022-07-29T09:48:24.144Z,5.82
2022-07-29T09:50:53.486Z,5.75
2022-07-29T09:53:39.006Z,4.95
2022-07-29T09:56:06.970Z,4.53
2022-07-29T09:58:35.633Z,5.00
2022-07-29T10:01:04.962Z,5.82
2022-07-29T10:03:32.671Z,4.85
2022-07-29T10:06:10.048Z,6.35
2022-07-29T10:08:39.122Z,4.78
2022-07-29T10:11:18.664Z,5.18
2022-07-29T10:13:49.165Z,5.47
2022-07-29T10:16:18.907Z,5.13
2022-07-29T10:18:47.903Z,4.97
2022-07-29T10:21:22.519Z,6.35
2022-07-29T10:24:03.204Z,4.68
2022-07-29T10:26:32.301Z,5.03
2022-07-29T10:29:00.743Z,4.32
2022-07-29T10:34:29.450Z,5.88
2022-07-29T10:37:46.062Z,4.63
2022-07-29T10:41:03.721Z,5.40
2022-07-29T10:43:42.473Z,12.93
2022-07-29T10:46:11.639Z,8.85
2022-07-29T10:49:12.735Z,7.45
2022-07-29T10:51:57.446Z,9.32
2022-07-29T10:54:48.812Z,5.20
2022-07-29T10:57:25.971Z,6.20
2022-07-29T11:00:16.827Z,6.30
2022-07-29T11:02:50.255Z,6.25
2022-07-29T11:05:20.736Z,6.25
2022-07-29T11:08:20.297Z,5.80
2022-07-29T11:11:22.288Z,6.22
2022-07-29T11:13:52.549Z,6.10
2022-07-29T11:16:25.225Z,5.45
2022-07-29T11:19:13.131Z,6.72
2022-07-29T11:21:55.376Z,4.90
2022-07-29T11:24:32.155Z,5.20
2022-07-29T11:30:06.577Z,7.22
2022-07-29T11:32:44.807Z,5.95
2022-07-29T11:35:37.696Z,6.43
2022-07-29T11:38:37.062Z,6.50
2022-07-29T11:41:30.188Z,6.65
2022-07-29T11:44:01.469Z,7.07
2022-07-29T11:46:50.756Z,5.53
2022-07-29T11:49:32.895Z,5.22
2022-07-29T11:52:04.708Z,5.00
2022-07-29T11:54:52.495Z,6.45
2022-07-29T11:57:36.456Z,6.30
2022-07-29T12:00:12.427Z,5.85
2022-07-29T12:02:48.263Z,6.13
2022-07-29T12:05:35.849Z,5.68
2022-07-29T12:08:20.833Z,7.95
2022-07-29T12:10:51.681Z,5.43
2022-07-29T12:13:22.222Z,5.32
2022-07-29T12:15:55.535Z,7.03
2022-07-29T12:18:24.053Z,5.13
2022-07-29T12:21:04.583Z,4.97
2022-07-29T12:23:34.356Z,7.43
2022-07-29T12:26:10.922Z,5.43
2022-07-29T12:28:50.338Z,5.95
2022-07-29T12:31:42.861Z,4.97
2022-07-29T12:34:06.470Z,5.82
2022-07-29T12:36:34.043Z,7.50
2022-07-29T12:39:01.762Z,6.93
2022-07-29T12:41:30.872Z,5.90
2022-07-29T12:43:58.454Z,5.57
2022-07-29T12:46:25.979Z,6.90
2022-07-29T12:48:58.447Z,6.47
2022-07-29T12:51:37.697Z,7.22
2022-07-29T12:54:14.971Z,5.70
2022-07-29T12:56:46.114Z,5.85
2022-07-29T12:59:19.717Z,5.32
2022-07-29T13:01:50.261Z,6.00
2022-07-29T13:04:32.418Z,5.97
2022-07-29T13:07:10.563Z,6.43
2022-07-29T13:09:49.504Z,9.23
2022-07-29T13:12:17.010Z,6.50
2022-07-29T13:14:51.720Z,6.78
2022-07-29T13:17:23.836Z,7.10
2022-07-29T13:20:05.278Z,6.32
2022-07-29T13:22:36.975Z,5.55
2022-07-29T13:25:07.510Z,7.13
2022-07-29T13:27:38.683Z,6.30
2022-07-29T13:30:10.766Z,6.00
2022-07-29T13:32:38.722Z,6.55
2022-07-29T13:35:09.314Z,6.22
2022-07-29T13:37:39.563Z,5.72
2022-07-29T13:40:10.472Z,5.65
2022-07-29T13:42:38.139Z,5.70
2022-07-29T13:45:07.726Z,6.70
2022-07-29T13:47:35.658Z,5.45
2022-07-29T13:50:08.779Z,5.32
2022-07-29T13:52:37.184Z,6.07
2022-07-29T13:55:05.997Z,6.03
2022-07-29T13:57:33.625Z,7.85
2022-07-29T14:00:01.428Z,6.20
2022-07-29T14:02:35.945Z,5.93
2022-07-29T14:05:08.392Z,6.68
2022-07-29T14:07:37.169Z,6.28
2022-07-29T14:10:05.890Z,6.65
2022-07-29T14:12:33.706Z,6.95
2022-07-29T14:15:01.246Z,6.38
2022-07-29T14:17:29.005Z,6.90
2022-07-29T14:19:56.520Z,7.47
2022-07-29T14:22:25.566Z,6.28
2022-07-29T14:24:53.588Z,7.28
2022-07-29T14:27:37.720Z,6.80
2022-07-29T14:30:07.979Z,5.80
2022-07-29T14:32:35.491Z,5.57
2022-07-29T14:35:03.009Z,6.57
2022-07-29T14:37:39.051Z,6.43
2022-07-29T14:40:10.319Z,8.37
2022-07-29T14:42:38.717Z,6.40
2022-07-29T14:45:08.759Z,7.35
2022-07-29T14:47:37.099Z,6.93
2022-07-29T14:50:07.023Z,7.32
2022-07-29T14:52:34.961Z,6.32
2022-07-29T14:55:03.778Z,6.97
2022-07-29T14:57:31.762Z,6.38
2022-07-29T14:59:59.488Z,6.57
2022-07-29T15:02:45.832Z,6.25
2022-07-29T15:05:14.927Z,6.90
2022-07-29T15:07:42.436Z,10.37
2022-07-29T15:10:10.731Z,6.90
2022-07-29T15:12:42.478Z,5.97
2022-07-29T15:15:10.944Z,5.40
2022-07-29T15:17:38.698Z,5.88
2022-07-29T15:22:34.458Z,5.85
2022-07-29T15:25:01.973Z,6.28
2022-07-29T15:27:29.810Z,6.30
2022-07-29T15:29:57.589Z,7.22
2022-07-29T15:32:25.145Z,7.28
2022-07-29T15:34:52.928Z,6.38
2022-07-29T15:37:20.619Z,5.50
2022-07-29T15:39:48.134Z,6.20
2022-07-29T15:42:15.968Z,6.47
2022-07-29T15:44:45.538Z,5.95
2022-07-29T15:47:13.036Z,6.32
2022-07-29T15:49:47.763Z,6.65
2022-07-29T15:52:25.940Z,6.32
2022-07-29T15:54:57.969Z,6.65
2022-07-29T15:57:26.134Z,6.32
2022-07-29T16:02:21.493Z,5.82
2022-07-29T16:04:49.252Z,6.32
2022-07-29T16:07:16.992Z,6.57
2022-07-29T16:09:50.839Z,6.38
2022-07-29T16:12:20.667Z,6.57
2022-07-29T16:14:50.911Z,6.95
2022-07-29T16:17:19.426Z,7.15
2022-07-29T16:19:47.311Z,6.15
2022-07-29T16:22:15.149Z,6.45
2022-07-29T16:24:42.810Z,5.65
2022-07-29T16:27:10.409Z,6.10
2022-07-29T16:29:38.185Z,5.90
2022-07-29T16:32:06.872Z,6.90
2022-07-29T16:34:34.593Z,5.85
2022-07-29T16:37:02.716Z,8.43
2022-07-29T16:39:30.442Z,6.15
2022-07-29T16:42:00.840Z,6.53
2022-07-29T16:44:30.178Z,6.18
2022-07-29T16:46:59.981Z,6.70
2022-07-29T16:49:28.620Z,5.95
2022-07-29T16:51:56.452Z,6.82
2022-07-29T16:54:23.949Z,6.63
2022-07-29T16:56:51.418Z,8.27
2022-07-29T16:59:19.148Z,8.77
2022-07-29T17:01:46.900Z,7.00
2022-07-29T17:04:15.140Z,6.80
2022-07-29T17:06:43.357Z,7.18
2022-07-29T17:09:15.157Z,7.60
2022-07-29T17:11:51.905Z,7.43
2022-07-29T17:14:31.143Z,12.20
2022-07-29T17:17:02.310Z,7.78
2022-07-29T17:19:34.222Z,9.38
2022-07-29T17:22:10.580Z,7.07
2022-07-29T17:24:41.258Z,11.52
2022-07-29T17:29:39.074Z,9.45
2022-07-29T17:32:09.090Z,11.38
2022-07-29T17:34:42.114Z,8.45
2022-07-29T17:37:12.047Z,8.68
2022-07-29T17:39:41.464Z,11.02
2022-07-29T17:42:14.425Z,10.90
2022-07-29T17:44:42.310Z,7.88
2022-07-29T17:47:16.041Z,10.60
2022-07-29T17:49:45.574Z,9.40
2022-07-29T17:52:13.225Z,9.05
2022-07-29T17:54:40.714Z,8.43
2022-07-29T17:57:08.762Z,13.57
2022-07-29T17:59:36.864Z,13.85
2022-07-29T18:02:04.418Z,9.57
2022-07-29T18:04:32.239Z,8.63
2022-07-29T18:07:00.217Z,14.10
2022-07-29T18:09:28.085Z,12.70
2022-07-29T18:11:56.078Z,9.20
2022-07-29T18:14:23.636Z,10.27
2022-07-29T18:16:51.203Z,12.88
2022-07-29T18:19:19.035Z,10.02
2022-07-29T18:21:54.063Z,13.65
2022-07-29T18:24:25.808Z,38.97
2022-07-29T18:26:53.977Z,11.98
2022-07-29T18:29:21.632Z,13.68
2022-07-29T18:31:49.620Z,14.98
2022-07-29T18:34:17.223Z,14.83
2022-07-29T18:36:45.907Z,19.30
2022-07-29T18:39:20.323Z,12.98
2022-07-29T18:41:51.401Z,13.65
2022-07-29T18:44:22.041Z,15.07
2022-07-29T18:46:52.105Z,22.35
2022-07-29T18:49:20.433Z,40.35
2022-07-29T18:51:49.047Z,33.17
2022-07-29T18:54:27.548Z,23.60
2022-07-29T18:56:55.848Z,18.67
2022-07-29T18:59:23.580Z,29.70
2022-07-29T19:01:51.350Z,29.85
2022-07-29T19:04:19.614Z,20.80
2022-07-29T19:06:47.291Z,18.33
2022-07-29T19:09:15.190Z,18.93
2022-07-29T19:11:43.263Z,22.80
2022-07-29T19:14:10.848Z,13.25
2022-07-29T19:16:38.564Z,15.88
2022-07-29T19:19:07.451Z,18.05
2022-07-29T19:21:35.025Z,27.42
2022-07-29T19:24:06.650Z,16.23
2022-07-29T19:26:38.615Z,13.52
2022-07-29T19:29:06.310Z,12.43
2022-07-29T19:31:33.983Z,15.38
2022-07-29T19:34:01.847Z,12.18
2022-07-29T19:36:30.625Z,12.38
2022-07-29T19:38:58.280Z,13.55
2022-07-29T19:41:26.513Z,14.80
2022-07-29T19:43:54.749Z,13.47
2022-07-29T19:46:23.593Z,12.85
2022-07-29T19:48:53.557Z,12.63
2022-07-29T19:51:22.718Z,13.23
2022-07-29T19:53:51.479Z,12.52
2022-07-29T19:56:19.328Z,12.07
2022-07-29T19:58:46.940Z,15.23
2022-07-29T20:01:16.711Z,14.82
2022-07-29T20:03:45.038Z,23.05
2022-07-29T20:06:13.530Z,17.57
2022-07-29T20:08:41.176Z,13.75
2022-07-29T20:11:09.184Z,11.50
2022-07-29T20:13:36.862Z,10.80
2022-07-29T20:16:06.511Z,11.05
2022-07-29T20:18:35.302Z,11.45
2022-07-29T20:21:04.996Z,11.40
2022-07-29T20:23:33.441Z,11.40
2022-07-29T20:26:02.858Z,13.98
2022-07-29T20:28:31.158Z,15.38
2022-07-29T20:30:58.679Z,11.90
2022-07-29T20:33:26.498Z,11.18
2022-07-29T20:35:54.055Z,15.27
2022-07-29T20:38:21.711Z,13.63
2022-07-29T20:40:50.769Z,18.70
2022-07-29T20:43:18.230Z,23.80
2022-07-29T20:45:45.970Z,25.35
2022-07-29T20:48:13.956Z,16.33
2022-07-29T20:50:42.844Z,14.77
2022-07-29T20:55:38.572Z,14.02
2022-07-29T20:58:06.076Z,12.15
2022-07-29T21:00:33.557Z,12.25
2022-07-29T21:03:01.367Z,28.75
2022-07-29T21:05:28.933Z,13.77
2022-07-29T21:07:58.234Z,17.55
2022-07-29T21:10:26.382Z,15.23
2022-07-29T21:12:54.242Z,12.45
2022-07-29T21:15:22.175Z,13.15
2022-07-29T21:17:52.441Z,12.85
2022-07-29T21:20:20.704Z,11.07
2022-07-29T21:22:48.196Z,11.07
2022-07-29T21:25:16.005Z,10.27
2022-07-29T21:28:02.158Z,15.23
2022-07-29T21:30:29.888Z,15.90
2022-07-29T21:32:57.774Z,12.00
2022-07-29T21:36:01.887Z,14.13
2022-07-29T21:38:13.378Z,10.07
2022-07-29T21:40:40.824Z,10.00
2022-07-29T21:43:08.457Z,14.35
2022-07-29T21:45:37.783Z,8.70
2022-07-29T21:48:06.664Z,11.35
2022-07-29T21:55:31.847Z,14.27
2022-07-29T21:58:00.056Z,10.55
2022-07-29T22:00:28.773Z,9.88
2022-07-29T22:02:56.293Z,9.43
2022-07-29T22:05:24.148Z,8.50
2022-07-29T22:07:54.487Z,9.32
2022-07-29T22:10:27.287Z,16.02
2022-07-29T22:12:57.514Z,9.75
2022-07-29T22:15:27.900Z,11.13
2022-07-29T22:17:55.992Z,13.95
2022-07-29T22:20:24.445Z,11.10
2022-07-29T22:22:52.038Z,17.15
2022-07-29T22:25:20.100Z,14.73
2022-07-29T22:27:47.646Z,13.13
2022-07-29T22:30:15.849Z,23.08
2022-07-29T22:32:43.617Z,14.55
2022-07-29T22:35:11.463Z,17.13
2022-07-29T22:37:39.373Z,14.93
2022-07-29T22:40:08.040Z,26.02
2022-07-29T22:42:35.827Z,16.50
2022-07-29T22:45:10.533Z,17.85
2022-07-29T22:47:48.375Z,15.75
2022-07-29T22:50:17.364Z,18.45
2022-07-29T22:52:46.950Z,20.60
2022-07-29T22:55:15.363Z,14.48
2022-07-29T22:57:43.281Z,13.05
2022-07-29T23:00:12.423Z,12.77
2022-07-29T23:02:41.419Z,11.82
2022-07-29T23:05:10.552Z,13.07
2022-07-29T23:10:06.789Z,11.73
2022-07-29T23:12:35.140Z,14.48
2022-07-29T23:15:02.619Z,11.55
2022-07-29T23:17:36.602Z,15.48
2022-07-29T23:20:09.802Z,11.15
2022-07-29T23:22:37.573Z,13.48
2022-07-29T23:25:06.384Z,11.02
2022-07-29T23:27:34.216Z,15.13
2022-07-29T23:30:02.534Z,13.20
2022-07-29T23:32:30.155Z,10.75
2022-07-29T23:34:57.881Z,14.15
2022-07-29T23:37:26.875Z,11.02
2022-07-29T23:39:54.690Z,11.02
2022-07-29T23:42:22.832Z,13.33
2022-07-29T23:44:50.383Z,16.65
2022-07-29T23:47:17.999Z,13.93
2022-07-29T23:49:46.516Z,14.63
2022-07-29T23:52:14.006Z,23.60
2022-07-29T23:54:41.502Z,13.50
2022-07-29T23:57:09.352Z,16.38
2022-07-29T23:59:36.784Z,13.73
